Time;durP1;ratioP1;P1;durP2;ratioP2;P2;SDS_P1;SDS_P2;PMS_P1;PMS_P2;Temp;Humidity;BMP_temperature;BMP_pressure;BME280_temperature;BME280_humidity;BME280_pressure;Samples;Min_cycle;Max_cycle;Signal;HPM_P1;HPM_P2
2022/11/30 00:01:55;;;;;;;47.90;35.80;;;;;;;5.71;100.00;162060.34;5029446;28;20396;-61
2022/11/30 00:04:20;;;;;;;50.67;36.22;;;;;;;5.70;100.00;162056.31;5030929;28;20084;-61
2022/11/30 00:06:45;;;;;;;47.72;35.17;;;;;;;5.70;100.00;162057.63;5013182;28;20045;-61
2022/11/30 00:09:12;;;;;;;48.65;36.65;;;;;;;5.68;100.00;162052.28;5011093;28;20068;-61
2022/11/30 00:11:37;;;;;;;46.78;35.47;;;;;;;5.74;100.00;162065.72;5009734;28;20044;-61
2022/11/30 00:14:02;;;;;;;48.20;36.58;;;;;;;5.75;100.00;162068.44;5010729;28;20030;-61
2022/11/30 00:16:28;;;;;;;49.28;36.55;;;;;;;5.75;100.00;162069.75;5008903;28;20044;-61
2022/11/30 00:18:53;;;;;;;52.80;38.83;;;;;;;5.75;100.00;162068.44;5014219;28;20029;-61
2022/11/30 00:21:19;;;;;;;46.40;35.00;;;;;;;5.76;100.00;162071.13;5025999;28;20056;-61
2022/11/30 00:23:45;;;;;;;46.92;32.17;;;;;;;5.76;100.00;162071.13;5010329;28;20033;-61
2022/11/30 00:26:14;;;;;;;53.35;38.10;;;;;;;5.76;100.00;162071.13;5009330;28;20037;-61
2022/11/30 00:28:40;;;;;;;43.58;34.22;;;;;;;5.73;100.00;162064.41;5011514;28;20030;-61
2022/11/30 00:31:10;;;;;;;52.20;38.55;;;;;;;5.76;100.00;162071.13;5024148;28;20558;-61
2022/11/30 00:33:36;;;;;;;49.95;36.15;;;;;;;5.77;100.00;162075.16;5030804;28;20103;-61
2022/11/30 00:36:05;;;;;;;54.40;39.88;;;;;;;5.75;100.00;162069.75;5030355;28;20017;-61
2022/11/30 00:38:31;;;;;;;46.30;36.00;;;;;;;5.71;100.00;162060.34;5028593;28;20049;-61
2022/11/30 00:40:56;;;;;;;49.53;38.33;;;;;;;5.75;100.00;162068.44;5013968;28;20048;-61
2022/11/30 00:43:22;;;;;;;49.78;34.92;;;;;;;5.72;100.00;162063.03;5024962;28;20045;-61
2022/11/30 00:45:48;;;;;;;46.50;36.38;;;;;;;5.69;100.00;162055.00;5029842;28;20357;-61
2022/11/30 00:48:13;;;;;;;45.50;35.35;;;;;;;5.72;100.00;162061.72;5018594;28;20136;-62
2022/11/30 00:50:38;;;;;;;47.22;38.08;;;;;;;5.70;100.00;162056.31;5017463;28;20057;-62
2022/11/30 00:53:04;;;;;;;45.40;35.45;;;;;;;5.70;100.00;162057.63;5028264;28;20056;-62
2022/11/30 00:55:30;;;;;;;50.85;34.33;;;;;;;5.70;100.00;162056.31;5023547;28;20017;-62
2022/11/30 00:57:56;;;;;;;49.22;35.90;;;;;;;5.70;100.00;162057.63;5028735;28;20048;-62
2022/11/30 01:00:21;;;;;;;52.85;37.63;;;;;;;5.69;100.00;162053.63;5028183;28;20025;-62
2022/11/30 01:02:46;;;;;;;56.83;39.60;;;;;;;5.70;100.00;162057.63;5028967;28;20037;-62
2022/11/30 01:05:12;;;;;;;48.17;34.70;;;;;;;5.68;100.00;162052.28;5030161;28;20037;-61
2022/11/30 01:07:37;;;;;;;57.55;42.58;;;;;;;5.63;100.00;162038.81;5030090;28;20523;-61
2022/11/30 01:10:03;;;;;;;55.08;37.63;;;;;;;5.60;100.00;162030.75;5034003;28;20388;-62
2022/11/30 01:12:28;;;;;;;49.78;37.88;;;;;;;5.55;100.00;162017.28;5033210;28;20046;-62
2022/11/30 01:14:53;;;;;;;57.05;39.58;;;;;;;5.52;100.00;162009.22;5034074;28;20484;-62
2022/11/30 01:17:19;;;;;;;53.35;37.92;;;;;;;5.53;100.00;162011.94;5032816;28;20100;-62
2022/11/30 01:19:44;;;;;;;64.60;46.05;;;;;;;5.54;100.00;162014.63;5021272;28;20088;-62
2022/11/30 01:22:10;;;;;;;61.05;43.10;;;;;;;5.55;100.00;162017.28;5012389;28;20050;-61
2022/11/30 01:24:35;;;;;;;61.38;37.67;;;;;;;5.55;100.00;162017.28;5014777;28;20022;-62
2022/11/30 01:27:00;;;;;;;58.00;40.60;;;;;;;5.49;100.00;162001.13;5013167;28;20046;-61
2022/11/30 01:29:26;;;;;;;60.30;41.97;;;;;;;5.51;100.00;162006.53;5013881;28;20555;-62
2022/11/30 01:31:51;;;;;;;56.88;40.30;;;;;;;5.51;100.00;162006.53;5012730;28;20034;-61
2022/11/30 01:34:16;;;;;;;54.97;35.65;;;;;;;5.51;100.00;162006.53;5014447;28;20018;-61
2022/11/30 01:36:42;;;;;;;54.92;37.13;;;;;;;5.55;100.00;162017.28;5012199;28;20049;-60
2022/11/30 01:39:08;;;;;;;54.47;40.78;;;;;;;5.59;100.00;162026.69;5014253;28;20022;-60
2022/11/30 01:41:34;;;;;;;60.50;39.90;;;;;;;5.59;100.00;162028.06;5012819;28;20519;-60
2022/11/30 01:44:06;;;;;;;56.92;40.78;;;;;;;5.60;100.00;162030.75;5013477;28;20049;-63
2022/11/30 01:46:43;;;;;;;57.72;39.80;;;;;;;5.61;100.00;162033.47;5012697;28;20044;-60
2022/11/30 01:49:09;;;;;;;57.88;37.03;;;;;;;5.66;100.00;162046.91;5013814;28;20026;-60
2022/11/30 01:51:57;;;;;;;54.58;41.38;;;;;;;5.67;100.00;162049.59;5012322;28;20120;-60
2022/11/30 01:54:28;;;;;;;54.88;39.33;;;;;;;5.64;100.00;162041.50;5013594;28;20038;-60
2022/11/30 01:56:58;;;;;;;59.83;39.17;;;;;;;5.69;100.00;162055.00;5012033;28;20140;-60
2022/11/30 01:59:24;;;;;;;55.10;37.38;;;;;;;5.68;100.00;162050.91;5022548;28;20033;-60
2022/11/30 02:01:52;;;;;;;58.33;40.10;;;;;;;5.63;100.00;162038.81;5032040;28;20041;-60
2022/11/30 02:04:27;;;;;;;59.83;40.45;;;;;;;5.61;100.00;162033.47;5033468;28;20472;-60
2022/11/30 02:06:52;;;;;;;57.83;38.13;;;;;;;5.54;100.00;162014.63;5020200;28;20038;-60
2022/11/30 02:09:20;;;;;;;62.83;42.38;;;;;;;5.51;100.00;162006.53;5013793;28;20030;-61
2022/11/30 02:11:46;;;;;;;61.10;39.63;;;;;;;5.43;100.00;161985.00;5012006;28;20061;-61
2022/11/30 02:14:29;;;;;;;70.10;45.88;;;;;;;5.35;100.00;161966.16;5013295;28;20473;-61
2022/11/30 02:17:36;;;;;;;66.57;44.05;;;;;;;5.31;100.00;161955.44;5011698;28;20096;-61
2022/11/30 02:20:23;;;;;;;76.60;49.78;;;;;;;5.26;100.00;161941.94;5004143;28;20045;-61
2022/11/30 02:23:12;;;;;;;73.10;46.92;;;;;;;5.13;100.00;161908.34;5029993;28;20041;-61
2022/11/30 02:26:07;;;;;;;65.85;45.35;;;;;;;5.04;100.00;161884.13;5033154;28;20018;-60
2022/11/30 02:28:43;;;;;;;62.97;43.75;;;;;;;4.91;100.00;161850.50;5031234;28;20045;-64
2022/11/30 02:31:15;;;;;;;57.20;39.38;;;;;;;4.81;100.00;161824.97;5031410;28;20504;-60
2022/11/30 02:33:42;;;;;;;63.40;39.42;;;;;;;4.70;100.00;161796.72;5033059;28;20078;-60
2022/11/30 02:36:08;;;;;;;56.03;39.58;;;;;;;4.63;100.00;161777.91;5025736;28;20029;-60
2022/11/30 02:38:34;;;;;;;52.00;39.70;;;;;;;4.56;100.00;161759.09;5013134;28;20026;-60
2022/11/30 02:40:59;;;;;;;64.78;38.72;;;;;;;4.57;100.00;161761.78;5006469;28;20673;-59
2022/11/30 02:43:28;;;;;;;57.13;41.25;;;;;;;4.58;100.00;161764.44;5012683;28;20057;-59
2022/11/30 02:46:12;;;;;;;;;;;;;;;4.60;100.00;161771.19;5012058;28;20026;-59
2022/11/30 02:49:06;;;;;;;70.22;40.80;;;;;;;4.67;100.00;161788.63;5012785;28;20395;-59
2022/11/30 02:51:34;;;;;;;73.18;44.28;;;;;;;4.72;100.00;161802.13;5011220;28;20038;-59
2022/11/30 02:53:59;;;;;;;63.83;43.20;;;;;;;4.72;100.00;161802.13;5012674;28;20120;-60
2022/11/30 02:56:25;;;;;;;62.78;40.78;;;;;;;4.70;100.00;161796.72;5011173;28;20037;-60
2022/11/30 02:58:51;;;;;;;64.57;41.70;;;;;;;4.78;100.00;161815.56;5018411;28;20076;-60
2022/11/30 03:01:17;;;;;;;70.28;44.60;;;;;;;4.83;100.00;161830.34;5030925;28;20037;-60
2022/11/30 03:03:43;;;;;;;68.68;45.63;;;;;;;4.90;100.00;161847.81;5032539;28;20495;-60
2022/11/30 03:06:09;;;;;;;69.75;43.13;;;;;;;4.92;100.00;161854.53;5030378;28;20408;-59
2022/11/30 03:08:34;;;;;;;66.40;44.65;;;;;;;4.97;100.00;160725.72;5031946;28;20025;-60
2022/11/30 03:11:04;;;;;;;66.47;43.65;;;;;;;4.98;100.00;158534.94;5030992;28;20029;-60
2022/11/30 03:13:30;;;;;;;63.30;40.67;;;;;;;5.00;100.00;156275.50;5031934;28;20029;-60
2022/11/30 03:15:56;;;;;;;59.33;41.33;;;;;;;5.03;100.00;154186.16;5030131;28;20026;-59
2022/11/30 03:18:21;;;;;;;64.57;40.97;;;;;;;5.01;100.00;153132.31;5031915;28;20670;-59
2022/11/30 03:20:46;;;;;;;63.45;41.17;;;;;;;5.02;100.00;152086.31;5031689;28;20032;-60
2022/11/30 03:23:12;;;;;;;55.05;39.58;;;;;;;5.01;100.00;151384.94;5030763;28;20037;-60
2022/11/30 03:25:37;;;;;;;59.42;38.80;;;;;;;5.02;100.00;151386.16;5032020;28;20048;-60
2022/11/30 03:28:02;;;;;;;64.95;40.00;;;;;;;5.01;100.00;151035.53;5030014;28;20033;-60
2022/11/30 03:30:28;;;;;;;64.65;40.63;;;;;;;5.05;100.00;150696.16;5030600;28;20083;-60
2022/11/30 03:32:53;;;;;;;60.63;39.35;;;;;;;5.08;100.00;150004.97;5030335;28;20037;-60
2022/11/30 03:35:18;;;;;;;65.35;45.42;;;;;;;5.03;100.00;149992.50;5031434;28;20030;-60
2022/11/30 03:37:44;;;;;;;58.67;41.15;;;;;;;5.09;100.00;149656.88;5029894;28;20056;-60
2022/11/30 03:40:10;;;;;;;66.93;41.72;;;;;;;5.16;100.00;148975.59;5031326;28;20503;-59
2022/11/30 03:42:35;;;;;;;64.15;43.88;;;;;;;5.17;100.00;149326.16;5029717;28;20068;-59
2022/11/30 03:45:01;;;;;;;61.40;42.90;;;;;;;5.14;100.00;150017.38;5031217;28;20381;-60
2022/11/30 03:47:26;;;;;;;68.03;42.33;;;;;;;5.13;100.00;150713.63;5030092;28;20377;-60
2022/11/30 03:49:51;;;;;;;64.82;41.58;;;;;;;5.12;100.00;151060.56;5030838;28;20029;-60
2022/11/30 03:52:17;;;;;;;70.43;42.78;;;;;;;5.11;100.00;152106.44;5030066;28;20041;-60
2022/11/30 03:54:42;;;;;;;63.40;42.47;;;;;;;5.11;100.00;152806.81;5031131;28;20029;-60
2022/11/30 03:57:07;;;;;;;70.03;43.42;;;;;;;5.10;100.00;153851.88;5029246;28;20049;-60
2022/11/30 03:59:33;;;;;;;61.88;40.50;;;;;;;5.12;100.00;154206.63;5020541;28;20036;-60
2022/11/30 04:01:58;;;;;;;58.22;41.58;;;;;;;5.12;100.00;154907.38;5010175;28;20493;-60
2022/11/30 04:04:23;;;;;;;64.43;41.88;;;;;;;5.13;100.00;155815.94;5011414;28;20069;-60
2022/11/30 04:06:49;;;;;;;57.80;42.60;;;;;;;5.12;100.00;156690.75;5009840;28;20042;-60
2022/11/30 04:09:14;;;;;;;69.60;44.65;;;;;;;5.11;100.00;157669.59;5011575;28;20100;-61
2022/11/30 04:11:39;;;;;;;63.50;42.95;;;;;;;5.11;100.00;158402.44;5009696;28;20034;-60
2022/11/30 04:14:05;;;;;;;58.75;42.97;;;;;;;5.13;100.00;158615.56;5011366;28;20041;-60
2022/11/30 04:16:30;;;;;;;66.72;42.78;;;;;;;5.11;100.00;159244.81;5009678;28;20042;-62
2022/11/30 04:18:55;;;;;;;61.17;43.20;;;;;;;5.11;100.00;159536.13;5010887;28;20029;-62
2022/11/30 04:21:21;;;;;;;59.80;38.28;;;;;;;4.95;100.00;159691.97;5013232;28;20033;-62
2022/11/30 04:23:46;;;;;;;60.72;38.22;;;;;;;5.12;100.00;159630.41;5030955;28;20125;-62
2022/11/30 04:26:13;;;;;;;67.50;40.60;;;;;;;5.09;100.00;159705.88;5029250;28;20048;-62
2022/11/30 04:28:39;;;;;;;58.65;41.78;;;;;;;5.11;100.00;159629.13;5019963;28;20597;-62
2022/11/30 04:31:04;;;;;;;74.50;43.65;;;;;;;5.10;100.00;159672.97;5009671;28;20045;-62
2022/11/30 04:33:29;;;;;;;70.20;43.28;;;;;;;5.10;100.00;159675.69;5010842;28;20028;-62
2022/11/30 04:35:57;;;;;;;62.90;44.15;;;;;;;5.11;100.00;159679.75;5009278;28;20030;-62
2022/11/30 04:38:23;;;;;;;56.78;40.03;;;;;;;5.08;100.00;159710.03;5011446;28;20040;-62
2022/11/30 04:40:48;;;;;;;69.07;43.47;;;;;;;5.06;100.00;159557.00;5008896;28;20381;-62
2022/11/30 04:43:13;;;;;;;58.97;40.05;;;;;;;5.04;100.00;159391.75;5010890;28;20044;-60
2022/11/30 04:45:39;;;;;;;64.82;43.60;;;;;;;5.02;100.00;158999.44;5016374;28;20022;-60
2022/11/30 04:48:06;;;;;;;64.90;42.88;;;;;;;5.03;100.00;158099.66;5028589;28;20101;-60
2022/11/30 04:50:31;;;;;;;58.38;40.83;;;;;;;5.06;100.00;157384.47;5030815;28;20086;-60
2022/11/30 04:52:57;;;;;;;64.15;41.58;;;;;;;5.01;100.00;157296.19;5029123;28;20045;-61
2022/11/30 04:55:22;;;;;;;68.50;40.78;;;;;;;5.00;100.00;156626.63;5030051;28;20021;-60
2022/11/30 04:57:48;;;;;;;64.25;44.10;;;;;;;4.98;100.00;155615.81;5028975;28;20114;-59
2022/11/30 05:00:16;;;;;;;71.38;48.15;;;;;;;5.03;100.00;155233.97;5030628;28;20153;-59
2022/11/30 05:02:42;;;;;;;49.80;33.47;;;;;;;4.99;100.00;154524.31;5028998;28;20113;-59
2022/11/30 05:05:08;;;;;;;57.78;41.67;;;;;;;4.95;100.00;153816.16;5030287;28;20098;-59
2022/11/30 05:07:33;;;;;;;64.35;45.88;;;;;;;4.96;100.00;152770.06;5029221;28;20556;-59
2022/11/30 05:09:59;;;;;;;63.55;43.22;;;;;;;4.95;100.00;151719.25;5026227;28;20026;-59
2022/11/30 05:12:24;;;;;;;67.80;44.83;;;;;;;4.99;100.00;150330.63;5009935;28;20080;-62
2022/11/30 05:14:49;;;;;;;69.57;44.70;;;;;;;4.98;100.00;149980.09;5014924;28;20026;-61
2022/11/30 05:17:15;;;;;;;63.58;41.90;;;;;;;4.95;100.00;149274.22;5024868;28;20507;-60
2022/11/30 05:19:40;;;;;;;66.85;44.88;;;;;;;4.94;100.00;148573.44;5030339;28;20446;-62
2022/11/30 05:22:05;;;;;;;74.28;43.78;;;;;;;4.90;100.00;147516.41;5023604;28;20091;-62
2022/11/30 05:24:31;;;;;;;64.95;44.97;;;;;;;4.95;100.00;146829.38;5022322;28;20069;-62
2022/11/30 05:26:56;;;;;;;64.47;44.42;;;;;;;4.96;100.00;146135.09;5008669;28;20484;-61
2022/11/30 05:29:22;;;;;;;70.85;45.55;;;;;;;4.93;100.00;145430.09;5010685;28;20033;-60
2022/11/30 05:31:47;;;;;;;72.10;43.97;;;;;;;4.98;100.00;144744.41;5009014;28;20045;-60
2022/11/30 05:34:12;;;;;;;73.75;45.60;;;;;;;4.98;100.00;144045.66;5011598;28;20036;-60
2022/11/30 05:36:38;;;;;;;70.78;43.42;;;;;;;5.00;100.00;143004.19;5009224;28;20045;-60
2022/11/30 05:39:03;;;;;;;73.38;48.80;;;;;;;5.03;100.00;142315.13;5012425;28;20333;-60
2022/11/30 05:41:29;;;;;;;75.72;48.30;;;;;;;5.05;100.00;141971.22;5017353;28;20045;-60
2022/11/30 05:43:55;;;;;;;72.53;46.03;;;;;;;5.07;100.00;141627.28;5007596;28;20053;-60
2022/11/30 05:46:20;;;;;;;65.10;45.80;;;;;;;5.06;100.00;141624.94;5028528;28;20116;-60
2022/11/30 05:48:46;;;;;;;76.10;49.75;;;;;;;5.05;100.00;141621.44;5029817;28;20021;-60
2022/11/30 05:51:14;;;;;;;70.70;48.28;;;;;;;5.06;100.00;141276.34;5028483;28;20044;-60
2022/11/30 05:53:40;;;;;;;79.70;48.85;;;;;;;5.09;100.00;141282.19;5031633;28;20102;-60
2022/11/30 05:56:13;;;;;;;80.95;48.42;;;;;;;5.09;100.00;141282.19;5031540;28;20267;-60
2022/11/30 05:58:39;;;;;;;77.05;47.33;;;;;;;5.12;100.00;141288.00;5033705;28;20056;-60
2022/11/30 06:01:05;;;;;;;73.63;44.42;;;;;;;5.12;100.00;141636.63;5031981;28;20053;-61
2022/11/30 06:03:32;;;;;;;72.03;45.70;;;;;;;5.12;100.00;141985.28;5033446;28;20075;-60
2022/11/30 06:05:58;;;;;;;78.43;53.05;;;;;;;5.13;100.00;142336.31;5031901;28;20021;-60
2022/11/30 06:08:23;;;;;;;79.43;45.75;;;;;;;5.13;100.00;142685.03;5033631;28;20029;-60
2022/11/30 06:10:49;;;;;;;76.85;45.97;;;;;;;5.11;100.00;143030.25;5031437;28;20029;-60
2022/11/30 06:13:14;;;;;;;86.13;48.00;;;;;;;5.14;100.00;142688.56;5033542;28;20136;-60
2022/11/30 06:15:40;;;;;;;80.63;46.20;;;;;;;5.15;100.00;143387.31;5033280;28;20029;-60
2022/11/30 06:18:06;;;;;;;76.28;43.38;;;;;;;5.16;100.00;143389.69;5031384;28;20574;-61
2022/11/30 06:20:32;;;;;;;73.43;47.72;;;;;;;5.16;100.00;143738.53;5033211;28;20029;-60
2022/11/30 06:22:57;;;;;;;92.40;48.97;;;;;;;5.18;100.00;143394.41;5031561;28;20045;-60
2022/11/30 06:25:24;;;;;;;86.53;46.88;;;;;;;5.19;100.00;143396.78;5032803;28;20036;-60
2022/11/30 06:27:49;;;;;;;78.70;46.95;;;;;;;5.18;100.00;143743.25;5031517;28;20041;-60
2022/11/30 06:30:14;;;;;;;70.75;41.10;;;;;;;5.20;100.00;143749.25;5033199;28;20630;-60
2022/11/30 06:32:44;;;;;;;75.10;42.90;;;;;;;5.20;100.00;144447.03;5031246;28;20049;-60
2022/11/30 06:35:09;;;;;;;83.68;48.83;;;;;;;5.21;100.00;144797.13;5032952;28;20441;-60
2022/11/30 06:37:34;;;;;;;75.13;44.78;;;;;;;5.20;100.00;145143.69;5031516;28;20049;-60
2022/11/30 06:40:00;;;;;;;74.80;44.08;;;;;;;5.21;100.00;145495.09;5032333;28;20030;-60
2022/11/30 06:42:28;;;;;;;72.88;42.78;;;;;;;5.22;100.00;145847.75;5013768;28;20038;-60
2022/11/30 06:44:54;;;;;;;72.35;44.17;;;;;;;5.21;100.00;145844.13;5012858;28;20184;-60
2022/11/30 06:47:20;;;;;;;75.13;43.53;;;;;;;5.22;100.00;145846.56;5011300;28;20060;-60
2022/11/30 06:49:46;;;;;;;70.65;44.20;;;;;;;5.24;100.00;145502.34;5012773;28;20029;-60
2022/11/30 06:52:11;;;;;;;69.60;45.92;;;;;;;5.24;100.00;145502.34;5011653;28;20045;-62
2022/11/30 06:54:37;;;;;;;72.43;47.88;;;;;;;5.22;100.00;145847.75;5012529;28;20025;-59
2022/11/30 06:57:02;;;;;;;80.07;47.85;;;;;;;5.18;100.00;146185.91;5010930;28;20046;-59
2022/11/30 06:59:28;;;;;;;76.50;44.50;;;;;;;5.17;100.00;146183.53;5012851;28;20025;-59
2022/11/30 07:01:53;;;;;;;76.20;47.55;;;;;;;5.17;100.00;146183.53;5010822;28;20034;-59
2022/11/30 07:04:18;;;;;;;77.65;48.67;;;;;;;5.16;100.00;146181.09;5012597;28;20037;-59
2022/11/30 07:06:44;;;;;;;71.50;45.22;;;;;;;5.17;100.00;146183.53;5011441;28;20050;-59
2022/11/30 07:09:10;;;;;;;76.10;43.95;;;;;;;5.17;100.00;145834.50;5012006;28;20390;-59
2022/11/30 07:11:36;;;;;;;75.07;45.28;;;;;;;5.13;100.00;145475.84;5011095;28;20390;-59
2022/11/30 07:14:01;;;;;;;67.82;41.97;;;;;;;5.17;100.00;145136.53;5012593;28;20053;-59
2022/11/30 07:16:26;;;;;;;73.65;48.90;;;;;;;5.15;100.00;145131.69;5010622;28;20441;-59
2022/11/30 07:18:52;;;;;;;71.68;43.30;;;;;;;5.16;100.00;144785.16;5012241;28;20025;-60
2022/11/30 07:21:17;;;;;;;77.63;47.95;;;;;;;5.13;100.00;144429.06;5010875;28;20169;-59
2022/11/30 07:26:26;;;;;;;73.72;44.95;;;;;;;5.13;100.00;144080.22;5011033;28;20523;-59
2022/11/30 07:28:53;;;;;;;80.82;50.58;;;;;;;5.14;100.00;143734.94;5012224;28;20030;-59
2022/11/30 07:31:22;;;;;;;76.28;45.03;;;;;;;5.15;100.00;143388.50;5010397;28;20037;-59
2022/11/30 07:33:48;;;;;;;73.32;43.38;;;;;;;5.14;100.00;143036.16;5012004;28;20480;-59
2022/11/30 07:36:15;;;;;;;81.85;49.78;;;;;;;5.17;100.00;142694.50;5010565;28;20038;-59
2022/11/30 07:38:40;;;;;;;71.22;43.53;;;;;;;5.17;100.00;142346.94;5011725;28;20022;-59
2022/11/30 07:41:06;;;;;;;76.68;48.00;;;;;;;5.16;100.00;142344.56;5010406;28;20046;-59
2022/11/30 07:43:31;;;;;;;74.45;47.30;;;;;;;5.16;100.00;142343.41;4993889;28;20088;-59
2022/11/30 07:45:57;;;;;;;74.80;50.38;;;;;;;5.14;100.00;141991.16;5010103;28;20400;-59
2022/11/30 07:48:22;;;;;;;78.82;49.30;;;;;;;5.17;100.00;141648.38;5011987;28;20030;-59
2022/11/30 07:50:48;;;;;;;67.80;43.00;;;;;;;5.19;100.00;140955.72;5010368;28;20033;-59
2022/11/30 07:53:14;;;;;;;73.05;42.63;;;;;;;5.20;100.00;140958.06;5011535;28;20025;-59
2022/11/30 07:55:40;;;;;;;82.40;47.80;;;;;;;5.20;100.00;140609.47;5011434;28;20560;-61
2022/11/30 07:58:05;;;;;;;73.07;45.88;;;;;;;5.20;100.00;140609.47;5010174;28;20052;-59
2022/11/30 08:00:30;;;;;;;69.22;44.08;;;;;;;5.17;100.00;140603.66;5011402;28;20018;-59
2022/11/30 08:02:56;;;;;;;77.70;47.70;;;;;;;5.22;100.00;140615.25;5001643;28;20038;-58
2022/11/30 08:05:22;;;;;;;74.32;47.22;;;;;;;5.23;100.00;140616.44;5011665;28;20036;-58
2022/11/30 08:07:51;;;;;;;73.70;43.17;;;;;;;5.21;100.00;140960.41;5009268;28;20084;-59
2022/11/30 08:10:20;;;;;;;80.75;46.33;;;;;;;5.19;100.00;141304.38;5011441;28;20385;-59
2022/11/30 08:12:47;;;;;;;78.68;51.53;;;;;;;5.23;100.00;141313.75;5009768;28;20038;-59
2022/11/30 08:15:12;;;;;;;68.45;43.22;;;;;;;5.24;100.00;141664.78;5011170;28;20032;-59
2022/11/30 08:17:38;;;;;;;75.20;48.13;;;;;;;5.25;100.00;141667.09;5009340;28;20041;-59
2022/11/30 08:20:05;;;;;;;75.25;48.40;;;;;;;5.31;100.00;141332.44;5010986;28;20022;-59
2022/11/30 08:22:31;;;;;;;76.80;49.72;;;;;;;5.29;100.00;141675.31;5009535;28;20103;-59
2022/11/30 08:24:56;;;;;;;71.90;47.03;;;;;;;5.29;100.00;142025.22;5011041;28;20033;-60
2022/11/30 08:27:22;;;;;;;68.60;43.20;;;;;;;5.35;100.00;141689.38;5009818;28;20463;-59
2022/11/30 08:29:47;;;;;;;86.10;47.63;;;;;;;5.34;100.00;141688.19;5010977;28;20034;-59
2022/11/30 08:32:12;;;;;;;82.85;51.17;;;;;;;5.36;100.00;142040.53;5009340;28;20042;-59
2022/11/30 08:34:38;;;;;;;78.43;48.30;;;;;;;5.35;100.00;142388.13;5011072;28;20416;-59
2022/11/30 08:37:03;;;;;;;68.40;44.03;;;;;;;5.39;100.00;142048.75;5009165;28;20069;-59
2022/11/30 08:39:30;;;;;;;81.38;48.67;;;;;;;5.41;100.00;142401.09;5010801;28;20045;-59
2022/11/30 08:41:56;;;;;;;69.82;45.75;;;;;;;5.46;100.00;142411.69;5009369;28;20038;-59
2022/11/30 08:44:21;;;;;;;75.53;45.67;;;;;;;5.46;100.00;142760.59;5010766;28;20042;-59
2022/11/30 08:46:47;;;;;;;71.60;47.22;;;;;;;5.48;100.00;143114.25;5008885;28;20045;-58
2022/11/30 08:49:12;;;;;;;65.13;41.35;;;;;;;5.49;100.00;144163.66;5011090;28;20026;-59
2022/11/30 08:51:37;;;;;;;84.13;44.78;;;;;;;5.51;100.00;144866.66;5009565;28;20093;-59
2022/11/30 08:54:03;;;;;;;67.05;46.72;;;;;;;5.55;100.00;145574.56;5010063;28;20022;-59
2022/11/30 08:56:29;;;;;;;70.38;45.20;;;;;;;5.61;100.00;146636.94;5009354;28;20049;-59
2022/11/30 08:58:54;;;;;;;68.15;43.40;;;;;;;5.67;100.00;147349.06;5010884;28;20029;-59
2022/11/30 09:01:24;;;;;;;65.68;43.88;;;;;;;5.74;100.00;148065.13;5009132;28;20049;-59
2022/11/30 09:03:52;;;;;;;61.60;38.15;;;;;;;5.79;100.00;149124.94;5005350;28;20021;-59
2022/11/30 09:06:26;;;;;;;59.83;40.40;;;;;;;5.74;100.00;151210.84;5009320;28;20046;-59
2022/11/30 09:08:54;;;;;;;67.40;40.72;;;;;;;5.74;100.00;154360.13;5010376;28;20026;-58
2022/11/30 09:11:19;;;;;;;64.43;38.35;;;;;;;5.83;100.00;155634.63;5008810;28;20038;-58
2022/11/30 09:13:45;;;;;;;66.15;42.92;;;;;;;5.93;100.00;156844.22;5010866;28;20096;-59
2022/11/30 09:16:14;;;;;;;57.38;39.25;;;;;;;5.83;100.00;160073.59;5008722;28;20100;-58
2022/11/30 09:18:39;;;;;;;;;;;;;;;5.80;100.00;162081.88;5011249;28;20034;-59
2022/11/30 09:21:08;;;;;;;64.43;41.23;;;;;;;5.84;100.00;162092.66;5006112;28;20655;-58
2022/11/30 09:23:34;;;;;;;57.83;37.35;;;;;;;5.88;100.00;162103.41;5010484;28;20444;-58
2022/11/30 09:26:01;;;;;;;55.90;37.35;;;;;;;5.93;100.00;162115.53;5008635;28;20627;-58
2022/11/30 09:28:29;;;;;;;61.88;37.13;;;;;;;5.91;100.00;162110.13;5011685;28;20022;-59
2022/11/30 09:31:02;;;;;;;56.63;35.50;;;;;;;5.91;100.00;162111.50;4994515;28;20393;-58
2022/11/30 09:33:29;;;;;;;44.90;29.92;;;;;;;5.88;100.00;162104.72;5012931;28;20481;-58
2022/11/30 09:35:56;;;;;;;54.20;32.72;;;;;;;5.89;100.00;162106.09;5011964;28;20035;-59
2022/11/30 09:38:22;;;;;;;62.60;36.38;;;;;;;5.88;100.00;162103.41;5013892;28;20515;-58
2022/11/30 09:40:53;;;;;;;55.30;35.65;;;;;;;5.93;100.00;162116.84;5012826;28;20021;-58
2022/11/30 09:43:24;;;;;;;46.67;30.13;;;;;;;5.95;100.00;162120.91;5014080;28;20125;-58
2022/11/30 09:45:55;;;;;;;45.88;28.48;;;;;;;5.95;100.00;162122.25;5012323;28;20485;-58
2022/11/30 09:48:30;;;;;;;48.70;31.00;;;;;;;6.00;100.00;162135.72;5014390;28;20022;-58
2022/11/30 09:51:02;;;;;;;49.92;32.47;;;;;;;6.02;100.00;162141.13;5012317;28;20033;-58
2022/11/30 09:53:39;;;;;;;45.10;28.00;;;;;;;6.04;100.00;162145.16;5013815;28;20030;-58
2022/11/30 09:56:19;;;;;;;48.45;31.45;;;;;;;6.02;100.00;162139.81;5012167;28;20054;-58
2022/11/30 09:58:49;;;;;;;43.92;30.05;;;;;;;6.00;100.00;162134.41;5013945;28;20144;-58
2022/11/30 10:01:19;;;;;;;39.75;27.77;;;;;;;6.01;100.00;162138.44;5012422;28;20073;-58
2022/11/30 10:03:46;;;;;;;44.15;29.77;;;;;;;6.07;100.00;162151.94;5014066;28;20026;-58
2022/11/30 10:06:22;;;;;;;47.85;29.92;;;;;;;6.14;100.00;162170.75;5011900;28;20093;-58
2022/11/30 10:09:46;;;;;;;43.00;29.73;;;;;;;6.11;100.00;162162.66;5009605;28;20038;-59
2022/11/30 10:12:20;;;;;;;44.83;33.58;;;;;;;6.10;100.00;162159.97;4976075;28;20049;-59
2022/11/30 10:15:13;;;;;;;41.30;30.17;;;;;;;6.00;100.00;162135.72;5007637;28;20105;-59
2022/11/30 10:17:59;;;;;;;41.85;30.52;;;;;;;5.98;100.00;162128.97;5011446;28;20443;-58
2022/11/30 10:20:48;;;;;;;46.88;33.85;;;;;;;6.00;100.00;162135.72;5013521;28;20386;-58
2022/11/30 10:23:29;;;;;;;46.92;30.10;;;;;;;5.99;100.00;162133.09;5011527;28;20041;-59
2022/11/30 10:25:56;;;;;;;44.85;26.40;;;;;;;5.97;100.00;162126.25;5011882;28;20028;-58
2022/11/30 10:28:36;;;;;;;37.00;26.00;;;;;;;5.89;100.00;162106.09;5013215;28;20030;-58
2022/11/30 10:31:02;;;;;;;44.45;31.08;;;;;;;5.94;100.00;162119.53;5010563;28;20496;-59
2022/11/30 10:33:36;;;;;;;37.63;26.52;;;;;;;6.00;100.00;162134.41;5011267;28;20061;-59
2022/11/30 10:36:11;;;;;;;39.92;27.15;;;;;;;5.96;100.00;162124.94;5010783;28;20022;-58
2022/11/30 10:38:43;;;;;;;40.47;27.38;;;;;;;5.95;100.00;162122.25;5012691;28;20026;-59
2022/11/30 10:41:30;;;;;;;50.17;30.85;;;;;;;5.97;100.00;162127.63;5011305;28;20088;-58
2022/11/30 10:44:13;;;;;;;69.35;33.90;;;;;;;5.97;100.00;162127.63;5012212;28;20061;-59
2022/11/30 10:46:44;;;;;;;49.55;29.27;;;;;;;5.93;100.00;162116.84;5011454;28;20029;-60
2022/11/30 10:49:17;;;;;;;47.67;35.10;;;;;;;5.94;100.00;162119.53;5012538;28;20058;-59
2022/11/30 10:51:46;;;;;;;48.67;32.08;;;;;;;5.97;100.00;162126.25;5011136;28;20038;-58
2022/11/30 10:54:21;;;;;;;31.33;25.75;;;;;;;5.91;100.00;162111.50;5012861;28;20088;-59
2022/11/30 10:56:46;;;;;;;36.40;25.95;;;;;;;5.90;100.00;162108.81;5007856;28;20041;-59
2022/11/30 11:00:05;;;;;;;31.55;23.38;;;;;;;5.87;100.00;162100.72;5011924;28;20041;-59
2022/11/30 11:02:35;;;;;;;;;;;;;;;5.84;100.00;162092.66;4995122;28;20034;-59
2022/11/30 11:05:07;;;;;;;37.60;26.92;;;;;;;5.77;100.00;162073.81;5011741;28;19917;-59
2022/11/30 11:07:43;;;;;;;37.88;26.20;;;;;;;5.80;100.00;162083.25;5010986;28;20420;-59
2022/11/30 11:10:14;;;;;;;37.35;24.15;;;;;;;5.79;100.00;162079.16;5028189;28;20025;-59
2022/11/30 11:12:47;;;;;;;33.03;24.77;;;;;;;5.78;100.00;162076.47;5028869;28;20056;-59
2022/11/30 11:15:19;;;;;;;38.22;27.08;;;;;;;5.82;100.00;162087.25;5032183;28;20026;-59
2022/11/30 11:17:45;;;;;;;54.95;30.92;;;;;;;5.85;100.00;162096.69;5030760;28;20050;-59